createdAt,value
2023-09-13T00:03:17.933Z,31.10
2023-09-13T00:08:27.709Z,31.20
2023-09-13T00:13:33.346Z,30.00
2023-09-13T00:18:36.630Z,32.90
2023-09-13T00:23:40.144Z,29.80
2023-09-13T00:28:43.576Z,32.30
2023-09-13T00:33:47.090Z,30.10
2023-09-13T00:38:50.568Z,29.60
2023-09-13T00:43:54.068Z,28.20
2023-09-13T00:48:58.572Z,31.50
2023-09-13T00:54:05.736Z,32.00
2023-09-13T00:59:10.777Z,32.10
2023-09-13T01:04:14.536Z,31.80
2023-09-13T01:09:19.257Z,28.60
2023-09-13T01:14:23.134Z,30.10
2023-09-13T01:19:51.613Z,30.40
2023-09-13T01:25:10.622Z,30.60
2023-09-13T01:30:14.255Z,30.60
2023-09-13T01:35:17.651Z,37.70
2023-09-13T01:40:30.893Z,30.90
2023-09-13T01:45:36.958Z,32.70
2023-09-13T01:50:48.968Z,37.40
2023-09-13T01:56:00.059Z,29.10
2023-09-13T02:01:08.145Z,36.00
2023-09-13T02:06:12.047Z,34.20
2023-09-13T02:11:15.427Z,32.00
2023-09-13T02:16:22.582Z,35.10
2023-09-13T02:21:26.049Z,32.70
2023-09-13T02:26:29.223Z,33.70
2023-09-13T02:31:32.658Z,38.00
2023-09-13T02:36:35.989Z,39.30
2023-09-13T02:41:39.153Z,36.30
2023-09-13T02:46:42.228Z,41.40
2023-09-13T02:51:46.434Z,36.40
2023-09-13T02:56:51.027Z,37.10
2023-09-13T03:01:55.224Z,36.20
2023-09-13T03:06:59.053Z,37.50
2023-09-13T03:12:03.260Z,37.30
2023-09-13T03:17:07.867Z,39.30
2023-09-13T03:22:11.411Z,37.20
2023-09-13T03:27:15.159Z,39.80
2023-09-13T03:32:18.630Z,39.30
2023-09-13T03:37:21.932Z,36.40
2023-09-13T03:42:25.434Z,36.20
2023-09-13T03:47:28.851Z,40.40
2023-09-13T03:52:32.330Z,42.30
2023-09-13T03:57:35.676Z,38.80
2023-09-13T04:02:39.071Z,36.50
2023-09-13T04:07:42.447Z,43.70
2023-09-13T04:12:45.797Z,38.90
2023-09-13T04:17:49.142Z,37.30
2023-09-13T04:22:52.671Z,40.10
2023-09-13T04:27:55.981Z,38.60
2023-09-13T04:33:04.095Z,44.10
2023-09-13T04:38:08.275Z,38.70
2023-09-13T04:43:11.624Z,41.00
2023-09-13T04:48:15.632Z,39.30
2023-09-13T04:53:19.341Z,40.30
2023-09-13T04:58:23.113Z,39.70
2023-09-13T05:03:26.736Z,47.40
2023-09-13T05:08:33.270Z,42.50
2023-09-13T05:13:40.085Z,41.00
2023-09-13T05:18:43.330Z,42.20
2023-09-13T05:23:46.882Z,43.30
2023-09-13T05:28:50.303Z,40.90
2023-09-13T05:33:53.675Z,41.40
2023-09-13T05:38:57.058Z,49.90
2023-09-13T05:44:00.314Z,45.70
2023-09-13T05:49:03.927Z,43.00
2023-09-13T05:54:07.508Z,40.00
2023-09-13T05:59:10.704Z,42.40
2023-09-13T06:04:13.935Z,37.90
2023-09-13T06:09:23.153Z,40.10
2023-09-13T06:14:26.416Z,34.50
2023-09-13T06:19:29.655Z,32.90
2023-09-13T06:24:32.832Z,34.10
2023-09-13T06:29:35.943Z,31.50
2023-09-13T06:34:39.488Z,28.90
2023-09-13T06:39:43.155Z,31.90
2023-09-13T06:44:48.566Z,30.70
2023-09-13T06:49:52.512Z,25.90
2023-09-13T06:54:57.952Z,28.20
2023-09-13T07:00:04.854Z,31.70
2023-09-13T07:10:14.583Z,26.10
2023-09-13T07:15:18.215Z,31.50
2023-09-13T07:20:21.808Z,26.70
2023-09-13T07:25:25.106Z,28.40
2023-09-13T07:30:29.033Z,28.50
2023-09-13T07:35:32.646Z,27.30
2023-09-13T07:40:35.803Z,23.30
2023-09-13T07:45:38.915Z,24.10
2023-09-13T07:50:42.304Z,22.30
2023-09-13T07:55:45.658Z,22.70
2023-09-13T08:00:48.903Z,25.70
2023-09-13T08:05:52.364Z,22.60
2023-09-13T08:10:55.671Z,17.60
2023-09-13T08:15:59.698Z,21.30
2023-09-13T08:21:02.965Z,16.50
2023-09-13T08:26:21.361Z,17.90
2023-09-13T08:31:29.458Z,15.60
2023-09-13T08:36:34.788Z,18.90
2023-09-13T08:41:38.293Z,21.50
2023-09-13T08:46:42.088Z,16.10
2023-09-13T08:51:47.395Z,14.50
2023-09-13T08:56:50.672Z,13.20
2023-09-13T09:01:55.197Z,15.30
2023-09-13T09:06:58.989Z,13.60
2023-09-13T09:12:05.271Z,14.60
2023-09-13T09:17:08.839Z,14.00
2023-09-13T09:22:13.265Z,16.00
2023-09-13T09:27:16.473Z,13.20
2023-09-13T09:32:19.785Z,14.20
2023-09-13T09:37:30.078Z,15.30
2023-09-13T09:42:39.668Z,13.60
2023-09-13T09:47:43.139Z,14.20
2023-09-13T09:52:51.356Z,14.40
2023-09-13T09:57:56.753Z,13.30
2023-09-13T10:03:00.706Z,12.40
2023-09-13T10:08:04.533Z,12.70
2023-09-13T10:13:07.705Z,14.90
2023-09-13T10:18:13.932Z,12.10
2023-09-13T10:23:19.178Z,12.30
2023-09-13T10:28:27.927Z,13.40
2023-09-13T10:33:35.906Z,14.00
2023-09-13T10:38:56.720Z,12.70
2023-09-13T10:44:00.271Z,13.60
2023-09-13T10:49:04.317Z,12.70
2023-09-13T10:54:08.351Z,13.10
2023-09-13T10:59:16.089Z,12.40
2023-09-13T11:04:21.434Z,14.00
2023-09-13T11:09:31.328Z,14.20
2023-09-13T11:14:35.075Z,12.00
2023-09-13T11:19:38.527Z,12.30
2023-09-13T11:25:00.614Z,15.00
2023-09-13T11:30:06.815Z,12.30
2023-09-13T11:35:11.546Z,15.70
2023-09-13T11:40:16.078Z,14.60
2023-09-13T11:45:33.206Z,15.40
2023-09-13T11:50:48.273Z,14.10
2023-09-13T11:56:12.085Z,12.30
2023-09-13T12:01:17.869Z,11.90
2023-09-13T12:06:32.343Z,11.50
2023-09-13T12:11:37.410Z,11.90
2023-09-13T12:16:43.897Z,14.40
2023-09-13T12:21:48.401Z,15.40
2023-09-13T12:26:55.217Z,14.20
2023-09-13T12:32:01.110Z,15.50
2023-09-13T12:37:04.962Z,13.60
2023-09-13T12:42:11.949Z,13.00
2023-09-13T12:47:21.169Z,15.10
2023-09-13T12:52:26.574Z,12.90
2023-09-13T12:57:32.724Z,10.70
2023-09-13T13:02:36.830Z,13.90
2023-09-13T13:07:52.882Z,11.40
2023-09-13T13:13:02.827Z,14.80
2023-09-13T13:18:10.640Z,10.90
2023-09-13T13:23:14.663Z,11.80
2023-09-13T13:28:17.946Z,12.70
2023-09-13T13:33:21.058Z,14.50
2023-09-13T13:38:24.206Z,12.70
2023-09-13T13:43:27.376Z,13.50
2023-09-13T13:48:31.721Z,12.50
2023-09-13T13:53:35.171Z,11.60
2023-09-13T13:58:38.416Z,12.30
2023-09-13T14:03:41.989Z,15.70
2023-09-13T14:08:45.405Z,11.90
2023-09-13T14:13:48.686Z,9.60
2023-09-13T14:18:51.963Z,14.00
2023-09-13T14:23:56.210Z,11.00
2023-09-13T14:29:00.684Z,11.70
2023-09-13T14:34:06.440Z,13.90
2023-09-13T14:39:09.692Z,11.50
2023-09-13T14:44:12.742Z,11.50
2023-09-13T14:49:20.785Z,12.90
2023-09-13T14:54:24.352Z,15.60
2023-09-13T14:59:27.942Z,10.50
2023-09-13T15:04:32.303Z,10.90
2023-09-13T15:09:35.520Z,10.00
2023-09-13T15:14:38.751Z,15.10
2023-09-13T15:19:42.037Z,13.00
2023-09-13T15:24:45.309Z,9.90
2023-09-13T15:29:48.637Z,11.90
2023-09-13T15:34:51.810Z,10.90
2023-09-13T15:39:58.290Z,12.50
2023-09-13T15:45:01.541Z,10.50
2023-09-13T15:50:05.187Z,12.00
2023-09-13T15:55:10.233Z,11.40
2023-09-13T16:00:14.093Z,11.20
2023-09-13T16:05:17.451Z,13.00
2023-09-13T16:10:23.993Z,12.20
2023-09-13T16:15:27.461Z,13.40
2023-09-13T16:20:31.042Z,14.50
2023-09-13T16:25:34.194Z,13.60
2023-09-13T16:30:37.672Z,15.60
2023-09-13T16:35:41.938Z,13.40
2023-09-13T16:40:45.153Z,12.70
2023-09-13T16:45:48.349Z,15.30
2023-09-13T16:50:51.679Z,17.60
2023-09-13T16:55:55.198Z,16.50
2023-09-13T17:00:58.876Z,15.90
2023-09-13T17:06:02.316Z,19.90
2023-09-13T17:11:09.712Z,16.70
2023-09-13T17:16:13.188Z,17.20
2023-09-13T17:21:16.746Z,16.30
2023-09-13T17:26:20.381Z,23.10
2023-09-13T17:31:24.258Z,16.10
2023-09-13T17:36:39.965Z,15.10
2023-09-13T17:41:45.380Z,22.00
2023-09-13T17:46:48.794Z,25.00
2023-09-13T17:51:52.049Z,21.90
2023-09-13T17:56:55.309Z,15.40
2023-09-13T18:01:58.535Z,22.10
2023-09-13T18:07:02.614Z,18.70
2023-09-13T18:12:07.097Z,21.40
2023-09-13T18:17:10.385Z,19.60
2023-09-13T18:22:13.624Z,29.20
2023-09-13T18:27:16.842Z,20.60
2023-09-13T18:32:19.994Z,18.70
2023-09-13T18:37:23.130Z,17.30
2023-09-13T18:42:26.403Z,23.00
2023-09-13T18:47:30.000Z,12.80
2023-09-13T18:52:33.136Z,19.40
2023-09-13T18:57:36.573Z,10.20
2023-09-13T19:02:40.666Z,16.70
2023-09-13T19:07:43.935Z,15.00
2023-09-13T19:12:49.074Z,13.80
2023-09-13T19:17:53.547Z,13.70
2023-09-13T19:22:56.754Z,13.40
2023-09-13T19:28:00.216Z,12.80
2023-09-13T19:33:04.458Z,12.70
2023-09-13T19:38:13.108Z,12.40
2023-09-13T19:43:24.370Z,10.30
2023-09-13T19:48:28.855Z,9.60
2023-09-13T19:53:32.684Z,10.30
2023-09-13T19:58:40.830Z,12.90
2023-09-13T20:03:44.708Z,10.10
2023-09-13T20:08:48.381Z,10.70
2023-09-13T20:13:51.761Z,9.60
2023-09-13T20:18:55.191Z,10.20
2023-09-13T20:23:58.327Z,10.30
2023-09-13T20:29:03.184Z,11.20
2023-09-13T20:34:08.678Z,13.30
2023-09-13T20:39:13.628Z,10.60
2023-09-13T20:44:16.902Z,11.10
2023-09-13T20:49:20.345Z,13.90
2023-09-13T20:54:25.922Z,12.00
2023-09-13T20:59:29.298Z,12.40
2023-09-13T21:04:36.012Z,13.60
2023-09-13T21:09:39.297Z,11.80
2023-09-13T21:14:42.558Z,12.40
2023-09-13T21:19:45.879Z,16.20
2023-09-13T21:24:50.465Z,15.60
2023-09-13T21:29:53.967Z,14.00
2023-09-13T21:35:02.298Z,14.00
2023-09-13T21:40:07.672Z,13.20
2023-09-13T21:45:11.146Z,14.80
2023-09-13T21:50:15.112Z,14.30
2023-09-13T21:55:18.821Z,13.10
2023-09-13T22:00:22.436Z,13.70
2023-09-13T22:05:25.832Z,14.40
2023-09-13T22:10:29.047Z,14.00
2023-09-13T22:15:32.325Z,15.70
2023-09-13T22:20:36.537Z,13.80
2023-09-13T22:25:39.666Z,15.50
2023-09-13T22:30:43.172Z,14.50
2023-09-13T22:35:48.392Z,16.70
2023-09-13T22:40:52.164Z,18.30
2023-09-13T22:45:56.056Z,19.70
2023-09-13T22:50:59.371Z,21.30
2023-09-13T22:56:03.454Z,21.10
2023-09-13T23:01:11.468Z,25.30
2023-09-13T23:06:15.272Z,21.40
2023-09-13T23:11:18.678Z,19.40
2023-09-13T23:16:21.992Z,21.50
2023-09-13T23:21:32.006Z,17.80
2023-09-13T23:26:35.161Z,17.20
2023-09-13T23:31:38.509Z,17.80
2023-09-13T23:36:41.820Z,18.60
2023-09-13T23:41:44.916Z,23.30
2023-09-13T23:46:48.378Z,20.30
2023-09-13T23:51:51.745Z,22.00
2023-09-13T23:56:54.919Z,20.70
